CheckWX is a tool to help pilots better visualize weather data.  It is not intended as a substitute for an official pre-flight weather briefing.

09:28:01 UTC

EDHI METAR
Hamburg-Finkenwerder Airport
Hamburg, Germany
Current

38 mins ago

EDHI 250850Z AUTO 08005KT 050V120 9999 // FEW053/// 24/14 Q1021
Observed
Aug-25 @ 08:50 UTC
Wind
  • 080° at 5 KTS
Visibility
10,000+ meters
Flight Rules
VFR
Cloud Levels
  • Few at 5,300' AGL
Temperature
24°C / 75°F
Dewpoint
14°C / 57°F
Humidity
54%
Altimeter
30.15" Hg
Pressure
1020.92 hPa
Previous

1 hour ago

EDHI 250820Z AUTO 06006KT 030V100 9999 // FEW058/// 23/14 Q1021
Observed
Aug-25 @ 08:20 UTC
Wind
  • 060° at 6 KTS
Visibility
10,000+ meters
Flight Rules
VFR
Cloud Levels
  • Few at 5,800' AGL
Temperature
23°C / 73°F
Dewpoint
14°C / 57°F
Humidity
57%
Altimeter
30.15" Hg
Pressure
1020.92 hPa
Previous

2 hours ago

EDHI 250750Z AUTO 07004KT 040V120 9999 // FEW065/// 23/14 Q1021
Observed
Aug-25 @ 07:50 UTC
Wind
  • 070° at 4 KTS
Visibility
10,000+ meters
Flight Rules
VFR
Cloud Levels
  • Few at 6,500' AGL
Temperature
23°C / 73°F
Dewpoint
14°C / 57°F
Humidity
57%
Altimeter
30.15" Hg
Pressure
1020.92 hPa